Latest Coastal Weather Observations for Bairnsdale

IDV60701

Issued at 7:32 pm EST Wednesday 19 June 2019 (issued every 10 minutes, with the page automatically refreshed every 10 minutes)

About coastal observations | Map of coastal stations | Coastal observations for VIC | Marine services | Other Formats
Station Details ID: 085279 Name: BAIRNSDALE AIRPORT Lat: -37.88 Lon: 147.57 Height: 49.4 m
Data from the previous 72 hours. | See also: Recent months at Bairnsdale
Date/Time
EST
Wind Sea
Height
m
Swell Vis
km
Cloud Weather Temp
°C
Press
hPa
Rain since
9am
mm
Dir  Spd
kts
Gust
kts
Height
m
Period
s
Dir
19/07:30pm W 9 11 - - - - 10 Partly cloudy - 7.0 1025.7 0.0
19/07:00pm W 9 11 - - - - 10 Cloudy - 7.9 1025.7 0.0
19/06:30pm WNW 8 10 - - - - 10 Partly cloudy - 7.5 1025.6 0.0
19/06:00pm W 7 10 - - - - 10 - - 7.5 1025.3 0.0
19/05:30pm W 7 9 - - - - 10 - - 8.0 1025.1 0.0
19/05:00pm W 8 11 - - - - 10 Partly cloudy - 8.7 1024.8 0.0
19/04:30pm W 9 11 - - - - 10 Partly cloudy - 9.8 1024.6 0.0
19/04:00pm WSW 13 21 - - - - 10 Partly cloudy - 9.3 1024.7 0.0
19/03:30pm W 10 15 - - - - 10 - - 11.3 1024.4 0.0
19/03:00pm WSW 12 17 - - - - 10 Mostly clear - 11.6 1024.2 0.0
19/02:30pm WSW 13 18 - - - - 10 Partly cloudy - 10.7 1024.1 0.0
19/02:00pm WSW 14 19 - - - - 10 Partly cloudy - 11.5 1024.0 0.0
19/01:30pm W 13 19 - - - - 10 Partly cloudy - 11.7 1024.2 0.0
19/01:00pm W 12 16 - - - - 10 Partly cloudy - 11.8 1024.3 0.0
19/12:30pm W 11 16 - - - - 10 Partly cloudy - 11.6 1024.4 0.0
19/12:00pm W 16 21 - - - - 10 Mostly clear - 10.9 1024.5 0.0
19/11:30am W 13 18 - - - - 10 - - 10.7 1024.7 0.0
19/11:00am W 15 22 - - - - 10 - - 10.3 1024.9 0.0
19/10:30am W 13 19 - - - - 10 - - 10.0 1024.9 0.0
19/10:00am W 12 17 - - - - 10 - - 9.2 1024.7 0.0
19/09:30am WNW 9 13 - - - - 10 Partly cloudy - 8.2 1024.5 0.0
19/09:00am WNW 10 13 - - - - 10 - - 6.5 1024.2 1.8
19/08:30am WNW 9 11 - - - - 10 - - 5.2 1023.9 1.8
19/08:00am WNW 8 9 - - - - 10 - - 3.7 1023.5 1.8
19/07:30am WNW 8 9 - - - - 10 - - 3.2 1023.2 1.8
19/07:00am NW 8 9 - - - - 10 - - 3.4 1022.9 1.8
19/06:30am NW 7 8 - - - - 10 - - 3.2 1022.5 1.8
19/06:00am WNW 8 11 - - - - 10 - - 3.9 1022.0 1.8
19/05:30am NW 6 8 - - - - 10 - - 2.8 1021.9 1.8
19/05:00am WNW 7 10 - - - - 10 - - 3.8 1021.9 1.8
19/04:30am WNW 7 9 - - - - 10 - - 4.8 1021.8 1.8
19/04:00am WNW 9 12 - - - - 10 - - 5.4 1021.5 1.8
19/03:30am WNW 9 12 - - - - 10 - - 5.4 1021.4 1.8
19/03:00am WNW 7 9 - - - - 10 - - 4.5 1021.5 1.8
19/02:30am NW 7 9 - - - - 10 - - 4.5 1021.5 1.8
19/02:00am WNW 7 10 - - - - 10 - - 5.1 1021.5 1.8
19/01:30am WNW 10 13 - - - - 10 - - 6.2 1021.2 1.8
19/01:00am W 9 12 - - - - 10 - - 6.3 1021.1 1.8
19/12:30am W 8 10 - - - - 10 - - 5.7 1021.0 1.8
19/12:00am W 9 11 - - - - 10 - - 6.2 1020.8 1.8
 
Date/Time
EST
Wind Sea
Height
m
Swell Vis
km
Cloud Weather Temp
°C
Press
hPa
Rain since
9am
mm
Dir  Spd
kts
Gust
kts
Height
m
Period
s
Dir
18/11:30pm W 9 12 - - - - 10 - - 6.7 1020.9 1.8
18/11:00pm W 8 12 - - - - 10 Partly cloudy - 6.8 1020.9 1.8
18/10:30pm WNW 7 9 - - - - 10 Partly cloudy - 7.0 1020.6 1.8
18/10:00pm WNW 9 13 - - - - 10 Partly cloudy - 7.3 1020.6 1.8
18/09:30pm NW 8 10 - - - - 10 Cloudy - 6.9 1020.4 1.6
18/09:00pm NW 7 9 - - - - 10 Partly cloudy - 6.9 1020.4 1.6
18/08:30pm NW 9 14 - - - - 10 Partly cloudy - 7.3 1020.1 1.6
18/08:00pm W 12 16 - - - - 10 Partly cloudy - 7.9 1020.5 1.6
18/07:30pm W 13 18 - - - - 10 Cloudy - 7.9 1020.3 1.6
18/07:00pm W 12 15 - - - - 10 Cloudy - 8.1 1020.0 1.6
18/06:30pm W 14 17 - - - - 10 Partly cloudy - 8.1 1019.4 1.6
18/06:00pm W 17 22 - - - - 10 Cloudy Rain 8.4 1018.8 0.6
18/05:30pm WSW 16 23 - - - - 10 Partly cloudy - 9.3 1018.0 0.4
18/05:18pm W 9 22 - - - - 10 Partly cloudy - 10.2 1017.9 0.2
18/05:00pm WNW 6 7 - - - - 10 Partly cloudy - 9.7 1017.1 0.2
18/04:30pm NW 6 7 - - - - 10 Partly cloudy - 10.3 1016.6 0.2
18/04:00pm WSW 7 11 - - - - 10 Partly cloudy - 9.9 1016.5 0.2
18/03:30pm SW 11 14 - - - - 10 Partly cloudy - 10.2 1016.4 0.0
18/03:00pm SW 15 19 - - - - 10 Cloudy - 10.1 1016.2 0.0
18/02:30pm NW 15 21 - - - - 10 Partly cloudy - 14.5 1015.2 0.0
18/02:00pm NNW 14 21 - - - - 10 Partly cloudy - 14.3 1015.0 0.0
18/01:30pm NW 16 22 - - - - 10 Partly cloudy - 15.6 1015.3 0.0
18/01:00pm NNW 17 25 - - - - 10 Partly cloudy - 14.3 1015.4 0.0
18/12:47pm NNW 18 29 - - - - 10 - - 14.5 1015.4 0.0
18/12:30pm NNW 9 14 - - - - 10 - - 15.3 1015.8 0.0
18/12:00pm N 6 9 - - - - 10 - - 13.6 1016.3 0.0
18/11:30am NNE 1 5 - - - - 10 - - 11.5 1016.8 0.0
18/11:00am N 6 10 - - - - 10 - - 11.0 1016.9 0.0
18/10:30am SW 1 4 - - - - 10 - - 8.7 1017.3 0.0
18/10:00am NNE 4 6 - - - - 10 - - 8.2 1017.5 0.0
18/09:30am NE 4 6 - - - - 10 - - 8.3 1017.5 0.0
18/09:00am NNE 7 9 - - - - 10 Mostly cloudy - 8.7 1017.4 0.0
18/08:30am N 8 11 - - - - 10 - - 10.8 1017.6 0.0
18/08:00am NNW 9 14 - - - - 10 - - 10.0 1017.5 0.0
18/07:30am ESE 3 5 - - - - 10 - - 6.0 1017.6 0.0
18/07:00am NNE 8 10 - - - - 10 - - 5.9 1017.6 0.0
18/06:30am NNW 3 5 - - - - 10 - - 5.7 1018.0 0.0
18/06:00am N 4 6 - - - - 10 Cloudy - 5.8 1018.0 0.0
18/05:30am NNW 5 6 - - - - 10 - - 6.1 1018.0 0.0
18/05:00am N 5 6 - - - - 10 - - 6.7 1018.0 0.0
18/04:30am NW 4 5 - - - - 10 - - 5.4 1018.2 0.0
18/04:00am NW 5 6 - - - - 10 - - 5.2 1018.2 0.0
18/03:30am NW 3 4 - - - - 10 - - 5.5 1018.6 0.0
18/03:00am NNW 5 6 - - - - 10 - - 3.7 1018.8 0.0
18/02:30am NNE 5 6 - - - - 10 - - 3.6 1018.8 0.0
18/02:00am NW 5 7 - - - - 10 - - 4.1 1018.7 0.0
18/01:30am NNW 7 9 - - - - 10 - - 3.9 1019.1 0.0
18/01:00am NNW 6 7 - - - - 10 - - 3.9 1019.2 0.0
18/12:30am N 4 5 - - - - 10 - - 4.0 1019.4 0.0
18/12:00am NNW 5 6 - - - - 10 - - 4.4 1020.0 0.0
 
Date/Time
EST
Wind Sea
Height
m
Swell Vis
km
Cloud Weather Temp
°C
Press
hPa
Rain since
9am
mm
Dir  Spd
kts
Gust
kts
Height
m
Period
s
Dir
17/11:30pm NNW 7 7 - - - - 10 - - 4.9 1020.3 0.0
17/11:00pm NNW 5 6 - - - - 10 - - 4.7 1020.5 0.0
17/10:44pm NNW 5 6 - - - - 10 - - 4.7 1020.7 0.0
17/10:30pm NW 5 6 - - - - 3 - - 4.8 1020.8 0.0
17/10:00pm NW 4 5 - - - - 2 - - 5.0 1020.9 0.0
17/09:30pm NW 5 6 - - - - 0.5 - - 5.1 1021.2 0.0
17/09:00pm NNW 4 5 - - - - 0.2 Mostly clear - 5.2 1021.3 0.0
17/08:44pm N 4 4 - - - - 3 - - 5.5 1021.5 0.0
17/08:30pm NE 4 4 - - - - 10 - - 6.2 1021.4 0.0
17/08:00pm ENE 4 4 - - - - 10 - - 7.0 1021.5 0.0
17/07:30pm ENE 5 6 - - - - 10 - - 8.8 1021.5 0.0
17/07:00pm E 6 7 - - - - 10 - - 8.4 1021.3 0.0
17/06:30pm ESE 4 4 - - - - 10 - - 7.7 1021.2 0.0
17/06:00pm ESE 4 4 - - - - 10 - - 8.5 1021.1 0.0
17/05:30pm E 4 5 - - - - 10 - - 9.3 1020.9 0.0
17/05:00pm ESE 6 7 - - - - 10 - - 10.2 1020.8 0.0
17/04:30pm ESE 6 8 - - - - 10 - - 12.3 1020.8 0.0
17/04:00pm ESE 6 9 - - - - 10 - - 14.1 1020.9 0.0
17/03:30pm ESE 5 7 - - - - 10 - - 15.4 1020.9 0.0
17/03:00pm E 5 6 - - - - 10 - - 15.6 1020.9 0.0
17/02:30pm ESE 5 6 - - - - 10 - - 15.7 1020.9 0.0
17/02:00pm ESE 5 7 - - - - 10 - - 15.3 1021.1 0.0
17/01:30pm ENE 4 5 - - - - 10 - - 15.8 1021.4 0.0
17/01:00pm ENE 4 5 - - - - 10 - - 15.4 1021.9 0.0
17/12:30pm ENE 2 4 - - - - 10 - - 15.1 1022.3 0.0
17/12:00pm N 4 7 - - - - 10 - - 14.2 1022.7 0.0
17/11:30am NW 5 7 - - - - 10 - - 13.3 1023.1 0.0
17/11:00am N 5 7 - - - - 10 - - 12.1 1023.5 0.0
17/10:30am NNW 6 7 - - - - 10 - - 10.8 1023.9 0.0
17/10:00am NNW 6 7 - - - - 10 - - 9.5 1024.0 0.0
17/09:30am NNW 5 6 - - - - 10 - - 8.2 1024.0 0.0
17/09:00am N 5 7 - - - - 10 - - 6.8 1024.0 0.2
17/08:30am NNW 4 5 - - - - 10 - - 5.8 1023.9 0.2
17/08:00am N 5 6 - - - - 10 - - 4.5 1023.8 0.2
17/07:30am N 5 6 - - - - 10 - - 3.6 1023.5 0.2
17/07:00am NNW 4 5 - - - - 10 - - 3.7 1023.4 0.2
17/06:30am NNW 5 6 - - - - 10 - - 3.2 1023.3 0.2
17/06:00am NNW 6 7 - - - - 10 - Recent precip. 3.7 1023.3 0.2
17/05:30am NW 7 9 - - - - 10 - - 4.2 1023.2 0.2
17/05:00am NW 6 7 - - - - 10 - - 3.6 1023.0 0.0
17/04:30am NNW 5 7 - - - - 10 - - 3.7 1023.2 0.0
17/04:00am N 5 6 - - - - 10 - - 4.3 1023.1 0.0
17/03:30am N 4 5 - - - - 10 - - 3.5 1023.0 0.0
17/03:00am NNW 5 6 - - - - 10 - - 4.7 1023.2 0.0
17/02:30am NW 8 9 - - - - 10 - - 5.4 1023.2 0.0
17/02:00am NW 5 7 - - - - 10 - - 4.5 1023.2 0.0
17/01:30am NW 6 8 - - - - 10 - - 5.6 1023.1 0.0
17/01:00am WNW 8 10 - - - - 10 - - 6.0 1023.3 0.0
17/12:30am WNW 8 9 - - - - 10 - - 5.8 1023.2 0.0
17/12:00am NW 8 9 - - - - 10 - - 5.9 1023.3 0.0
 
Date/Time
EST
Wind Sea
Height
m
Swell Vis
km
Cloud Weather Temp
°C
Press
hPa
Rain since
9am
mm
Dir  Spd
kts
Gust
kts
Height
m
Period
s
Dir
16/11:30pm NW 7 8 - - - - 10 - - 5.6 1023.4 0.0
16/11:00pm NW 7 9 - - - - 10 - - 5.4 1023.4 0.0
16/10:30pm NW 5 6 - - - - 10 - - 5.5 1023.4 0.0
16/10:00pm NW 5 6 - - - - 10 - - 5.2 1023.5 0.0
16/09:30pm NW 6 7 - - - - 10 - - 6.4 1023.5 0.0
16/09:00pm N 4 5 - - - - 10 - - 7.9 1023.4 0.0
16/08:30pm CALM 0 3 - - - - 10 Partly cloudy - 9.1 1023.4 0.0
16/08:00pm NE 4 5 - - - - 10 Cloudy - 10.0 1023.4 0.0

Other formats

Comma delimited format used in spreadsheet applications
http://www.bom.gov.au/fwo/IDV60701/IDV60701.94912.axf

JavaScript Object Notation format (JSON) in row-major order
http://www.bom.gov.au/fwo/IDV60701/IDV60701.94912.json

Data quality

Most of these data are generated automatically and are frequently updated. Quality checks on data are not normally performed. It is possible for incorrect values to appear. Refer to information at About Latest Weather Observations and please check the disclaimer before using these data.